createdAt,value
2022-09-15T00:00:32.797Z,13.54
2022-09-15T00:02:59.528Z,13.63
2022-09-15T00:05:26.224Z,13.49
2022-09-15T00:07:52.848Z,13.56
2022-09-15T00:10:19.622Z,13.57
2022-09-15T00:12:46.279Z,13.48
2022-09-15T00:15:14.894Z,13.54
2022-09-15T00:17:43.828Z,13.57
2022-09-15T00:20:11.019Z,13.54
2022-09-15T00:22:38.283Z,13.48
2022-09-15T00:25:05.632Z,13.49
2022-09-15T00:27:33.683Z,13.41
2022-09-15T00:30:00.801Z,13.45
2022-09-15T00:32:28.199Z,13.36
2022-09-15T00:34:54.819Z,13.30
2022-09-15T00:37:21.850Z,13.24
2022-09-15T00:39:49.230Z,13.17
2022-09-15T00:42:18.250Z,13.20
2022-09-15T00:44:47.801Z,13.13
2022-09-15T00:47:19.669Z,13.03
2022-09-15T00:49:49.413Z,12.98
2022-09-15T00:52:22.107Z,12.96
2022-09-15T00:54:54.504Z,13.00
2022-09-15T00:57:37.174Z,12.98
2022-09-15T01:00:09.097Z,12.96
2022-09-15T01:02:42.429Z,13.03
2022-09-15T01:05:13.129Z,13.00
2022-09-15T01:07:39.759Z,13.00
2022-09-15T01:10:12.262Z,12.91
2022-09-15T01:12:41.032Z,12.78
2022-09-15T01:15:08.353Z,12.79
2022-09-15T01:17:43.892Z,12.80
2022-09-15T01:20:38.416Z,12.76
2022-09-15T01:23:32.036Z,12.81
2022-09-15T01:26:33.729Z,12.78
2022-09-15T01:29:02.289Z,12.72
2022-09-15T01:32:10.458Z,12.64
2022-09-15T01:34:45.140Z,12.68
2022-09-15T01:37:17.995Z,12.64
2022-09-15T01:39:47.051Z,12.60
2022-09-15T01:42:16.650Z,12.70
2022-09-15T01:44:49.766Z,12.66
2022-09-15T01:47:20.533Z,12.64
2022-09-15T01:49:52.888Z,12.62
2022-09-15T01:52:22.597Z,12.60
2022-09-15T01:54:54.314Z,12.65
2022-09-15T01:57:21.938Z,12.66
2022-09-15T01:59:50.536Z,12.55
2022-09-15T02:02:22.953Z,12.53
2022-09-15T02:04:58.118Z,12.54
2022-09-15T02:07:45.025Z,12.59
2022-09-15T02:10:19.105Z,12.64
2022-09-15T02:12:55.448Z,12.61
2022-09-15T02:15:29.200Z,12.64
2022-09-15T02:17:59.291Z,12.66
2022-09-15T02:20:48.707Z,12.71
2022-09-15T02:23:26.944Z,12.70
2022-09-15T02:25:58.171Z,12.79
2022-09-15T02:28:31.671Z,12.72
2022-09-15T02:31:00.773Z,12.72
2022-09-15T02:33:33.405Z,12.79
2022-09-15T02:36:00.822Z,12.71
2022-09-15T02:38:33.428Z,12.78
2022-09-15T02:41:01.187Z,12.77
2022-09-15T02:43:30.579Z,12.84
2022-09-15T02:45:58.382Z,12.70
2022-09-15T02:48:28.084Z,12.73
2022-09-15T02:50:54.777Z,12.86
2022-09-15T02:53:21.422Z,12.93
2022-09-15T02:55:48.559Z,13.05
2022-09-15T02:58:15.230Z,13.07
2022-09-15T03:00:42.046Z,13.16
2022-09-15T03:03:08.845Z,13.20
2022-09-15T03:05:35.558Z,13.16
2022-09-15T03:08:02.477Z,13.10
2022-09-15T03:10:30.357Z,12.95
2022-09-15T03:12:56.987Z,12.91
2022-09-15T03:15:26.039Z,12.93
2022-09-15T03:17:53.680Z,12.93
2022-09-15T03:20:28.049Z,12.92
2022-09-15T03:22:54.803Z,12.92
2022-09-15T03:25:22.060Z,12.90
2022-09-15T03:27:51.794Z,12.95
2022-09-15T03:30:18.945Z,12.99
2022-09-15T03:32:45.644Z,12.93
2022-09-15T03:35:12.337Z,12.92
2022-09-15T03:37:39.928Z,12.86
2022-09-15T03:40:24.470Z,12.80
2022-09-15T03:42:51.132Z,12.74
2022-09-15T03:45:17.834Z,12.77
2022-09-15T03:47:44.436Z,12.80
2022-09-15T03:50:13.588Z,12.84
2022-09-15T03:52:40.216Z,12.91
2022-09-15T03:55:09.692Z,12.90
2022-09-15T03:57:36.404Z,12.86
2022-09-15T04:00:05.369Z,12.93
2022-09-15T04:02:32.108Z,12.93
2022-09-15T04:04:58.969Z,12.88
2022-09-15T04:07:26.080Z,12.89
2022-09-15T04:09:52.772Z,12.95
2022-09-15T04:12:19.567Z,12.85
2022-09-15T04:14:46.356Z,12.86
2022-09-15T04:17:12.954Z,12.81
2022-09-15T04:19:40.416Z,12.81
2022-09-15T04:22:08.323Z,12.75
2022-09-15T04:24:34.976Z,12.85
2022-09-15T04:27:01.591Z,12.91
2022-09-15T04:29:28.251Z,13.02
2022-09-15T04:31:54.969Z,12.95
2022-09-15T04:34:23.541Z,12.94
2022-09-15T04:36:50.551Z,13.00
2022-09-15T04:39:17.236Z,12.97
2022-09-15T04:41:43.804Z,13.00
2022-09-15T04:44:10.496Z,13.16
2022-09-15T04:46:39.457Z,13.13
2022-09-15T04:49:06.240Z,13.13
2022-09-15T04:51:33.064Z,13.21
2022-09-15T04:54:00.199Z,13.26
2022-09-15T04:56:27.422Z,13.14
2022-09-15T04:59:03.600Z,13.17
2022-09-15T05:01:35.372Z,13.18
2022-09-15T05:04:06.406Z,13.22
2022-09-15T05:06:35.055Z,13.26
2022-09-15T05:09:10.086Z,13.21
2022-09-15T05:11:37.754Z,13.28
2022-09-15T05:14:04.690Z,13.32
2022-09-15T05:16:32.099Z,13.34
2022-09-15T05:19:03.473Z,13.40
2022-09-15T05:21:30.649Z,13.35
2022-09-15T05:23:57.393Z,13.59
2022-09-15T05:26:26.619Z,13.52
2022-09-15T05:28:53.541Z,13.45
2022-09-15T05:31:23.115Z,13.41
2022-09-15T05:33:52.962Z,13.48
2022-09-15T05:36:21.292Z,13.58
2022-09-15T05:38:47.925Z,13.63
2022-09-15T05:41:17.040Z,13.58
2022-09-15T05:43:47.646Z,13.56
2022-09-15T05:46:15.733Z,13.60
2022-09-15T05:48:44.575Z,13.65
2022-09-15T05:51:12.265Z,13.72
2022-09-15T05:53:40.853Z,13.64
2022-09-15T05:56:16.128Z,13.62
2022-09-15T05:58:59.194Z,13.63
2022-09-15T06:01:30.146Z,13.74
2022-09-15T06:04:01.601Z,13.74
2022-09-15T06:06:30.481Z,13.92
2022-09-15T06:08:59.189Z,13.97
2022-09-15T06:11:29.026Z,14.00
2022-09-15T06:13:59.348Z,14.06
2022-09-15T06:16:26.915Z,14.07
2022-09-15T06:18:58.512Z,14.09
2022-09-15T06:21:27.252Z,14.33
2022-09-15T06:24:01.969Z,14.42
2022-09-15T06:26:29.386Z,14.48
2022-09-15T06:28:58.625Z,14.44
2022-09-15T06:31:27.293Z,14.36
2022-09-15T06:33:57.883Z,14.46
2022-09-15T06:36:29.247Z,14.66
2022-09-15T06:38:56.511Z,14.92
2022-09-15T06:41:25.882Z,15.06
2022-09-15T06:43:53.167Z,15.18
2022-09-15T06:46:22.695Z,15.31
2022-09-15T06:48:51.313Z,15.34
2022-09-15T06:51:19.906Z,15.37
2022-09-15T06:53:48.514Z,15.26
2022-09-15T06:56:18.022Z,15.41
2022-09-15T06:58:45.989Z,15.39
2022-09-15T07:01:20.948Z,15.25
2022-09-15T07:03:48.089Z,15.32
2022-09-15T07:06:15.013Z,15.22
2022-09-15T07:08:41.950Z,15.42
2022-09-15T07:11:10.955Z,15.44
2022-09-15T07:13:40.594Z,15.53
2022-09-15T07:16:12.060Z,15.47
2022-09-15T07:18:42.995Z,15.72
2022-09-15T07:21:16.618Z,15.76
2022-09-15T07:23:44.119Z,15.63
2022-09-15T07:26:21.926Z,15.59
2022-09-15T07:28:59.701Z,15.58
2022-09-15T07:31:28.864Z,15.56
2022-09-15T07:33:56.158Z,15.56
2022-09-15T07:36:25.988Z,15.63
2022-09-15T07:38:52.845Z,15.68
2022-09-15T07:41:28.463Z,15.87
2022-09-15T07:44:00.202Z,16.01
2022-09-15T07:46:30.215Z,16.10
2022-09-15T07:48:58.123Z,16.23
2022-09-15T07:51:25.851Z,16.24
2022-09-15T07:53:55.154Z,16.30
2022-09-15T07:56:23.323Z,16.53
2022-09-15T07:58:51.182Z,16.68
2022-09-15T08:01:19.290Z,16.83
2022-09-15T08:03:53.821Z,16.93
2022-09-15T08:06:23.134Z,17.02
2022-09-15T08:08:53.186Z,17.06
2022-09-15T08:11:23.149Z,17.20
2022-09-15T08:13:53.578Z,17.27
2022-09-15T08:16:29.625Z,17.34
2022-09-15T08:18:57.896Z,17.41
2022-09-15T08:21:25.035Z,17.56
2022-09-15T08:23:58.299Z,17.55
2022-09-15T08:26:26.451Z,17.77
2022-09-15T08:28:53.578Z,17.95
2022-09-15T08:31:20.422Z,18.08
2022-09-15T08:33:56.852Z,18.20
2022-09-15T08:36:28.326Z,18.48
2022-09-15T08:38:55.052Z,18.65
2022-09-15T08:41:28.175Z,18.72
2022-09-15T08:44:11.046Z,18.81
2022-09-15T08:46:41.239Z,18.80
2022-09-15T08:49:23.472Z,18.89
2022-09-15T08:52:00.732Z,18.96
2022-09-15T08:54:29.774Z,18.91
2022-09-15T08:56:58.497Z,19.01
2022-09-15T08:59:31.547Z,19.21
2022-09-15T09:02:33.568Z,19.61
2022-09-15T09:05:02.942Z,19.73
2022-09-15T09:08:10.780Z,19.72
2022-09-15T09:10:51.777Z,19.65
2022-09-15T09:13:21.338Z,19.69
2022-09-15T09:16:06.740Z,19.80
2022-09-15T09:18:46.954Z,20.01
2022-09-15T09:21:13.543Z,20.16
2022-09-15T09:23:47.558Z,20.10
2022-09-15T09:26:15.194Z,20.16
2022-09-15T09:28:51.293Z,20.24
2022-09-15T09:31:21.795Z,20.46
2022-09-15T09:34:22.355Z,20.41
2022-09-15T09:36:57.356Z,20.39
2022-09-15T09:39:24.787Z,20.43
2022-09-15T09:41:51.398Z,20.36
2022-09-15T09:44:19.680Z,20.48
2022-09-15T09:46:47.450Z,20.55
2022-09-15T09:49:25.222Z,20.59
2022-09-15T09:52:02.419Z,20.88
2022-09-15T09:54:31.691Z,21.10
2022-09-15T09:57:27.915Z,21.49
2022-09-15T09:59:54.576Z,21.93
2022-09-15T10:02:27.367Z,22.30
2022-09-15T10:05:12.354Z,22.32
2022-09-15T10:07:41.317Z,22.37
2022-09-15T10:10:18.967Z,22.40
2022-09-15T10:12:45.610Z,22.32
2022-09-15T10:15:28.821Z,22.21
2022-09-15T10:17:56.501Z,22.34
2022-09-15T10:20:28.759Z,22.39
2022-09-15T10:23:13.808Z,22.32
2022-09-15T10:25:57.924Z,22.23
2022-09-15T10:28:26.795Z,21.91
2022-09-15T10:30:56.401Z,20.64
2022-09-15T10:33:22.970Z,20.11
2022-09-15T10:35:49.561Z,19.82
2022-09-15T10:38:26.593Z,19.77
2022-09-15T10:41:15.893Z,19.79
2022-09-15T10:43:51.635Z,19.92
2022-09-15T10:46:25.280Z,20.02
2022-09-15T10:49:10.258Z,20.31
2022-09-15T10:51:48.748Z,20.71
2022-09-15T10:54:18.538Z,20.64
2022-09-15T10:57:05.406Z,20.51
2022-09-15T10:59:43.257Z,20.50
2022-09-15T11:02:10.626Z,20.50
2022-09-15T11:04:56.820Z,20.64
2022-09-15T11:07:26.174Z,20.78
2022-09-15T11:10:13.012Z,21.08
2022-09-15T11:13:03.098Z,21.51
2022-09-15T11:15:35.887Z,21.76
2022-09-15T11:18:18.675Z,22.07
2022-09-15T11:21:04.409Z,21.98
2022-09-15T11:23:49.469Z,21.88
2022-09-15T11:26:19.610Z,21.84
2022-09-15T11:28:50.440Z,21.80
2022-09-15T11:31:43.372Z,22.01
2022-09-15T11:34:36.255Z,22.21
2022-09-15T11:37:10.174Z,22.22
2022-09-15T11:39:40.076Z,22.34
2022-09-15T11:42:09.664Z,22.63
2022-09-15T11:44:36.262Z,22.84
2022-09-15T11:47:02.968Z,22.92
2022-09-15T11:49:36.931Z,23.02
2022-09-15T11:52:11.375Z,23.08
2022-09-15T11:54:41.929Z,23.06
2022-09-15T11:57:16.513Z,23.05
2022-09-15T11:59:53.793Z,23.35
2022-09-15T12:02:23.763Z,23.30
2022-09-15T12:04:57.978Z,23.30
2022-09-15T12:07:33.876Z,23.59
2022-09-15T12:10:48.006Z,23.65
2022-09-15T12:13:26.759Z,23.51
2022-09-15T12:16:01.166Z,23.54
2022-09-15T12:18:54.212Z,23.45
2022-09-15T12:21:26.067Z,23.40
2022-09-15T12:23:58.321Z,23.46
2022-09-15T12:26:26.247Z,23.54
2022-09-15T12:29:02.693Z,23.62
2022-09-15T12:31:29.520Z,23.60
2022-09-15T12:34:07.117Z,23.72
2022-09-15T12:36:47.022Z,23.78
2022-09-15T12:39:58.219Z,23.83
2022-09-15T12:42:33.243Z,24.27
2022-09-15T12:45:27.353Z,24.60
2022-09-15T12:48:43.367Z,24.71
2022-09-15T12:51:11.950Z,24.74
2022-09-15T12:53:58.497Z,24.50
2022-09-15T12:56:51.717Z,24.38
2022-09-15T12:59:22.753Z,24.48
2022-09-15T13:01:59.549Z,24.86
2022-09-15T13:04:26.519Z,24.95
2022-09-15T13:07:14.814Z,25.20
2022-09-15T13:09:58.142Z,25.15
2022-09-15T13:12:29.955Z,25.25
2022-09-15T13:15:06.150Z,25.63
2022-09-15T13:17:33.885Z,25.00
2022-09-15T13:20:02.029Z,24.77
2022-09-15T13:22:38.648Z,25.07
2022-09-15T13:25:11.028Z,24.89
2022-09-15T13:27:52.350Z,24.61
2022-09-15T13:30:34.262Z,24.32
2022-09-15T13:33:14.018Z,24.23
2022-09-15T13:36:16.147Z,24.04
2022-09-15T13:39:01.122Z,24.00
2022-09-15T13:42:09.076Z,24.11
2022-09-15T13:45:03.158Z,24.32
2022-09-15T13:47:36.549Z,24.24
2022-09-15T13:50:06.181Z,24.40
2022-09-15T13:53:04.841Z,24.19
2022-09-15T13:55:41.090Z,24.01
2022-09-15T14:01:06.879Z,23.87
2022-09-15T14:03:46.176Z,24.24
2022-09-15T14:06:20.936Z,24.42
2022-09-15T14:08:50.170Z,24.23
2022-09-15T14:11:25.283Z,24.13
2022-09-15T14:13:52.076Z,24.08
2022-09-15T14:16:21.044Z,23.96
2022-09-15T14:18:47.591Z,23.88
2022-09-15T14:21:18.782Z,23.77
2022-09-15T14:23:49.182Z,23.69
2022-09-15T14:26:18.254Z,23.63
2022-09-15T14:29:18.403Z,23.74
2022-09-15T14:31:45.399Z,23.69
2022-09-15T14:34:42.065Z,23.50
2022-09-15T14:37:20.831Z,23.39
2022-09-15T14:42:50.093Z,23.38
2022-09-15T14:45:54.173Z,23.33
2022-09-15T14:48:34.371Z,23.24
2022-09-15T14:51:13.699Z,23.23
2022-09-15T14:53:43.038Z,23.17
2022-09-15T14:56:30.518Z,23.10
2022-09-15T14:59:05.004Z,23.04
2022-09-15T15:01:54.428Z,23.04
2022-09-15T15:04:30.135Z,23.02
2022-09-15T15:07:08.336Z,23.01
2022-09-15T15:09:34.933Z,22.94
2022-09-15T15:12:07.829Z,22.88
2022-09-15T15:14:37.585Z,22.85
2022-09-15T15:17:16.913Z,22.71
2022-09-15T15:19:46.237Z,22.60
2022-09-15T15:22:21.896Z,22.61
2022-09-15T15:24:49.716Z,22.65
2022-09-15T15:27:34.574Z,22.57
2022-09-15T15:30:31.322Z,22.52
2022-09-15T15:33:06.474Z,22.48
2022-09-15T15:35:35.861Z,22.43
2022-09-15T15:38:11.782Z,22.33
2022-09-15T15:40:40.712Z,22.25
2022-09-15T15:43:32.050Z,22.23
2022-09-15T15:46:04.210Z,22.15
2022-09-15T15:48:49.989Z,22.09
2022-09-15T15:51:17.128Z,22.12
2022-09-15T15:53:43.689Z,22.07
2022-09-15T15:56:10.505Z,21.98
2022-09-15T15:58:37.125Z,21.93
2022-09-15T16:01:03.977Z,21.95
2022-09-15T16:03:30.832Z,21.99
2022-09-15T16:05:59.587Z,21.97
2022-09-15T16:08:33.149Z,21.87
2022-09-15T16:11:03.181Z,21.89
2022-09-15T16:13:29.748Z,21.86
2022-09-15T16:15:57.973Z,21.79
2022-09-15T16:18:24.903Z,21.72
2022-09-15T16:20:51.710Z,21.67
2022-09-15T16:23:21.181Z,21.54
2022-09-15T16:25:59.308Z,21.42
2022-09-15T16:28:26.218Z,21.47
2022-09-15T16:30:53.011Z,21.44
2022-09-15T16:33:20.287Z,21.25
2022-09-15T16:36:08.303Z,21.21
2022-09-15T16:38:47.353Z,21.10
2022-09-15T16:41:23.118Z,21.02
2022-09-15T16:43:58.679Z,20.91
2022-09-15T16:46:25.626Z,20.77
2022-09-15T16:48:52.399Z,20.64
2022-09-15T16:51:28.678Z,20.61
2022-09-15T16:54:03.878Z,20.57
2022-09-15T16:56:30.569Z,20.53
2022-09-15T16:59:00.439Z,20.47
2022-09-15T17:01:27.746Z,20.29
2022-09-15T17:03:54.660Z,20.23
2022-09-15T17:06:22.278Z,20.18
2022-09-15T17:08:49.345Z,20.23
2022-09-15T17:11:18.417Z,20.17
2022-09-15T17:13:45.798Z,20.20
2022-09-15T17:16:14.969Z,20.22
2022-09-15T17:18:41.741Z,20.10
2022-09-15T17:21:12.047Z,20.04
2022-09-15T17:23:41.288Z,20.15
2022-09-15T17:26:13.849Z,20.09
2022-09-15T17:28:42.565Z,20.02
2022-09-15T17:31:15.944Z,19.97
2022-09-15T17:33:43.062Z,19.99
2022-09-15T17:36:10.020Z,20.00
2022-09-15T17:38:36.804Z,20.03
2022-09-15T17:41:03.540Z,20.09
2022-09-15T17:43:31.352Z,20.03
2022-09-15T17:45:58.384Z,19.88
2022-09-15T17:48:25.351Z,19.84
2022-09-15T17:50:52.434Z,19.90
2022-09-15T17:53:22.818Z,19.85
2022-09-15T17:55:57.278Z,19.74
2022-09-15T17:58:26.631Z,19.66
2022-09-15T18:00:53.997Z,19.63
2022-09-15T18:03:28.032Z,19.58
2022-09-15T18:05:59.070Z,19.45
2022-09-15T18:08:25.898Z,19.48
2022-09-15T18:10:52.514Z,19.46
2022-09-15T18:13:20.426Z,19.39
2022-09-15T18:15:48.949Z,19.29
2022-09-15T18:18:17.182Z,19.32
2022-09-15T18:20:47.527Z,19.34
2022-09-15T18:23:14.849Z,19.27
2022-09-15T18:25:41.666Z,19.30
2022-09-15T18:28:08.344Z,19.30
2022-09-15T18:30:40.714Z,19.31
2022-09-15T18:33:27.541Z,19.38
2022-09-15T18:35:55.780Z,19.37
2022-09-15T18:38:23.330Z,19.35
2022-09-15T18:40:54.195Z,19.32
2022-09-15T18:43:21.384Z,19.29
2022-09-15T18:45:48.410Z,19.26
2022-09-15T18:48:15.488Z,19.31
2022-09-15T18:50:43.614Z,19.31
2022-09-15T18:53:10.357Z,19.28
2022-09-15T18:55:36.944Z,19.14
2022-09-15T18:58:03.483Z,19.11
2022-09-15T19:00:32.318Z,19.13
2022-09-15T19:02:59.886Z,19.02
2022-09-15T19:05:27.007Z,19.04
2022-09-15T19:07:53.601Z,19.05
2022-09-15T19:10:20.240Z,19.09
2022-09-15T19:12:46.708Z,19.04
2022-09-15T19:15:13.580Z,19.01
2022-09-15T19:17:40.977Z,18.96
2022-09-15T19:20:08.561Z,18.91
2022-09-15T19:22:35.654Z,18.77
2022-09-15T19:25:02.188Z,18.75
2022-09-15T19:27:28.961Z,18.75
2022-09-15T19:29:55.488Z,18.79
2022-09-15T19:32:22.699Z,18.78
2022-09-15T19:34:49.326Z,18.66
2022-09-15T19:37:18.886Z,18.62
2022-09-15T19:39:47.210Z,18.52
2022-09-15T19:44:42.360Z,18.58
2022-09-15T19:47:09.444Z,18.61
2022-09-15T19:49:36.286Z,18.68
2022-09-15T19:52:06.855Z,18.65
2022-09-15T19:54:34.635Z,18.62
2022-09-15T19:57:01.782Z,18.64
2022-09-15T19:59:31.360Z,18.58
2022-09-15T20:01:59.169Z,18.61
2022-09-15T20:04:32.104Z,18.64
2022-09-15T20:06:58.716Z,18.64
2022-09-15T20:09:26.229Z,18.53
2022-09-15T20:11:52.890Z,18.60
2022-09-15T20:14:19.578Z,18.61
2022-09-15T20:16:46.252Z,18.57
2022-09-15T20:19:13.080Z,18.45
2022-09-15T20:21:55.794Z,18.43
2022-09-15T20:24:23.948Z,18.49
2022-09-15T20:26:51.348Z,18.44
2022-09-15T20:29:18.500Z,18.34
2022-09-15T20:31:45.167Z,18.41
2022-09-15T20:34:11.989Z,18.30
2022-09-15T20:36:39.120Z,18.33
2022-09-15T20:39:13.113Z,18.31
2022-09-15T20:41:44.976Z,18.33
2022-09-15T20:44:12.330Z,18.23
2022-09-15T20:46:39.152Z,18.13
2022-09-15T20:49:06.619Z,18.10
2022-09-15T20:51:33.947Z,18.13
2022-09-15T20:54:03.412Z,18.10
2022-09-15T20:56:31.804Z,18.03
2022-09-15T20:59:00.122Z,18.08
2022-09-15T21:01:36.888Z,18.09
2022-09-15T21:04:04.966Z,18.10
2022-09-15T21:06:31.656Z,18.09
2022-09-15T21:08:58.689Z,18.13
2022-09-15T21:11:27.562Z,18.18
2022-09-15T21:13:55.542Z,18.13
2022-09-15T21:16:25.018Z,18.14
2022-09-15T21:18:51.985Z,18.10
2022-09-15T21:21:22.980Z,18.05
2022-09-15T21:23:55.230Z,17.98
2022-09-15T21:26:27.158Z,17.89
2022-09-15T21:28:54.655Z,17.87
2022-09-15T21:31:22.974Z,17.85
2022-09-15T21:33:49.939Z,17.86
2022-09-15T21:36:22.272Z,17.78
2022-09-15T21:38:50.905Z,17.76
2022-09-15T21:41:20.962Z,17.77
2022-09-15T21:43:49.047Z,17.76
2022-09-15T21:46:18.359Z,17.72
2022-09-15T21:48:47.204Z,17.80
2022-09-15T21:51:24.531Z,17.82
2022-09-15T21:53:55.719Z,17.80
2022-09-15T21:56:23.299Z,17.85
2022-09-15T21:58:50.345Z,17.80
2022-09-15T22:01:25.887Z,17.78
2022-09-15T22:03:54.989Z,17.83
2022-09-15T22:06:27.713Z,17.89
2022-09-15T22:08:54.998Z,17.92
2022-09-15T22:11:22.417Z,17.89
2022-09-15T22:13:49.094Z,18.04
2022-09-15T22:16:21.242Z,18.00
2022-09-15T22:18:48.302Z,18.06
2022-09-15T22:21:20.728Z,18.11
2022-09-15T22:23:48.976Z,18.16
2022-09-15T22:26:21.089Z,18.29
2022-09-15T22:28:48.328Z,18.40
2022-09-15T22:31:17.001Z,18.49
2022-09-15T22:33:44.518Z,18.64
2022-09-15T22:36:15.415Z,18.57
2022-09-15T22:38:42.557Z,18.47
2022-09-15T22:41:14.501Z,18.45
2022-09-15T22:43:43.050Z,18.49
2022-09-15T22:46:11.302Z,18.58
2022-09-15T22:48:43.050Z,18.67
2022-09-15T22:51:11.254Z,18.69
2022-09-15T22:53:37.959Z,18.65
2022-09-15T22:56:12.402Z,18.55
2022-09-15T22:58:43.239Z,18.44
2022-09-15T23:01:13.585Z,18.38
2022-09-15T23:03:40.645Z,18.42
2022-09-15T23:06:07.920Z,18.39
2022-09-15T23:08:35.731Z,18.39
2022-09-15T23:11:08.116Z,18.38
2022-09-15T23:13:35.212Z,18.42
2022-09-15T23:16:02.265Z,18.48
2022-09-15T23:18:29.619Z,18.58
2022-09-15T23:21:00.548Z,18.43
2022-09-15T23:23:28.283Z,18.27
2022-09-15T23:25:55.593Z,18.19
2022-09-15T23:28:23.502Z,18.22
2022-09-15T23:30:54.527Z,18.26
2022-09-15T23:33:22.121Z,18.31
2022-09-15T23:35:48.983Z,18.28
2022-09-15T23:38:16.328Z,18.20
2022-09-15T23:40:43.701Z,18.18
2022-09-15T23:43:11.409Z,18.21
2022-09-15T23:45:38.520Z,18.20
2022-09-15T23:48:07.040Z,18.18
2022-09-15T23:50:34.640Z,18.14
2022-09-15T23:53:01.428Z,18.04
2022-09-15T23:55:28.125Z,18.04
2022-09-15T23:57:54.923Z,17.98
